createdAt,value
2023-12-18T00:00:52.885Z,9.418352
2023-12-18T00:01:52.854Z,9.418329
2023-12-18T00:02:52.821Z,9.418317
2023-12-18T00:03:52.982Z,9.418366
2023-12-18T00:04:52.776Z,9.418434
2023-12-18T00:05:52.766Z,9.418309
2023-12-18T00:06:52.761Z,9.418269
2023-12-18T00:07:52.776Z,9.418240
2023-12-18T00:08:52.760Z,9.418281
2023-12-18T00:09:52.775Z,9.418303
2023-12-18T00:10:52.762Z,9.418434
2023-12-18T00:11:52.739Z,9.418378
2023-12-18T00:12:52.734Z,9.418350
2023-12-18T00:13:52.720Z,9.418508
2023-12-18T00:14:52.753Z,9.418413
2023-12-18T00:15:52.707Z,9.418411
2023-12-18T00:16:52.689Z,9.418322
2023-12-18T00:17:52.732Z,9.418242
2023-12-18T00:18:52.818Z,9.418176
2023-12-18T00:19:52.697Z,9.418416
2023-12-18T00:20:52.694Z,9.418231
2023-12-18T00:21:52.692Z,9.418390
2023-12-18T00:22:52.663Z,9.418317
2023-12-18T00:23:52.645Z,9.418314
2023-12-18T00:24:52.646Z,9.418373
2023-12-18T00:25:52.657Z,9.418427
2023-12-18T00:26:52.657Z,9.418408
2023-12-18T00:27:53.037Z,9.418357
2023-12-18T00:28:52.624Z,9.418393
2023-12-18T00:29:52.618Z,9.418310
2023-12-18T00:30:52.679Z,9.418347
2023-12-18T00:31:52.606Z,9.418342
2023-12-18T00:32:52.639Z,9.418309
2023-12-18T00:33:52.709Z,9.418271
2023-12-18T00:34:52.743Z,9.418247
2023-12-18T00:35:52.564Z,9.418271
2023-12-18T00:36:52.561Z,9.418232
2023-12-18T00:37:52.554Z,9.418225
2023-12-18T00:38:52.547Z,9.418183
2023-12-18T00:39:52.557Z,9.418195
2023-12-18T00:40:52.548Z,9.418380
2023-12-18T00:41:52.529Z,9.418250
2023-12-18T00:42:52.543Z,9.418219
2023-12-18T00:43:52.516Z,9.418189
2023-12-18T00:44:52.533Z,9.418198
2023-12-18T00:45:52.510Z,9.418123
2023-12-18T00:46:52.502Z,9.418259
2023-12-18T00:47:52.559Z,9.418234
2023-12-18T00:48:52.594Z,9.418189
2023-12-18T00:49:52.638Z,9.418174
2023-12-18T00:50:52.506Z,9.418333
2023-12-18T00:51:52.495Z,9.418231
2023-12-18T00:52:52.459Z,9.418183
2023-12-18T00:53:52.444Z,9.418103
2023-12-18T00:54:52.449Z,9.418197
2023-12-18T00:55:52.597Z,9.418389
2023-12-18T00:56:52.438Z,9.418174
2023-12-18T00:57:54.226Z,9.418360
2023-12-18T00:58:53.421Z,9.418330
2023-12-18T00:59:52.425Z,9.418291
2023-12-18T01:00:52.499Z,9.418057
2023-12-18T01:01:52.413Z,9.418262
2023-12-18T01:02:52.433Z,9.418215
2023-12-18T01:03:52.565Z,9.418233
2023-12-18T01:04:52.452Z,9.418079
2023-12-18T01:05:52.390Z,9.418126
2023-12-18T01:06:52.367Z,9.418347
2023-12-18T01:07:52.386Z,9.418204
2023-12-18T01:08:52.365Z,9.418160
2023-12-18T01:09:52.369Z,9.418270
2023-12-18T01:10:52.354Z,9.418368
2023-12-18T01:11:52.350Z,9.418376
2023-12-18T01:12:52.366Z,9.418532
2023-12-18T01:13:52.427Z,9.418505
2023-12-18T01:14:52.323Z,9.418217
2023-12-18T01:15:52.337Z,9.417936
2023-12-18T01:16:52.319Z,9.417957
2023-12-18T01:17:52.359Z,9.417996
2023-12-18T01:18:52.411Z,9.417991
2023-12-18T01:19:52.403Z,9.417876
2023-12-18T01:20:52.281Z,9.418260
2023-12-18T01:21:52.280Z,9.418306
2023-12-18T01:23:01.916Z,9.418150
2023-12-18T01:23:54.288Z,9.418355
2023-12-18T01:24:52.265Z,9.418431
2023-12-18T01:25:52.264Z,9.418457
2023-12-18T01:26:52.245Z,9.417997
2023-12-18T01:27:52.276Z,9.418380
2023-12-18T01:28:52.571Z,9.418405
2023-12-18T01:29:52.225Z,9.418273
2023-12-18T01:30:52.320Z,9.418294
2023-12-18T01:31:52.208Z,9.418120
2023-12-18T01:32:52.266Z,9.418068
2023-12-18T01:33:52.228Z,9.418409
2023-12-18T01:34:52.199Z,9.418822
2023-12-18T01:35:52.193Z,9.418553
2023-12-18T01:36:52.177Z,9.418525
2023-12-18T01:37:52.181Z,9.418932
2023-12-18T01:38:52.154Z,9.418602
2023-12-18T01:39:52.163Z,9.418532
2023-12-18T01:40:52.180Z,9.418342
2023-12-18T01:41:52.156Z,9.418541
2023-12-18T01:42:52.140Z,9.418980
2023-12-18T01:43:52.131Z,9.418656
2023-12-18T01:44:52.117Z,9.418442
2023-12-18T01:45:52.121Z,9.418586
2023-12-18T01:46:52.144Z,9.418447
2023-12-18T01:47:52.190Z,9.418497
2023-12-18T01:48:52.309Z,9.418412
2023-12-18T01:49:52.157Z,9.418371
2023-12-18T01:50:52.073Z,9.418228
2023-12-18T01:51:52.181Z,9.418182
2023-12-18T01:52:52.070Z,9.418363
2023-12-18T01:53:52.063Z,9.418314
2023-12-18T01:54:52.066Z,9.418352
2023-12-18T01:55:52.059Z,9.418150
2023-12-18T01:56:52.051Z,9.418322
2023-12-18T01:57:52.126Z,9.418338
2023-12-18T01:58:52.040Z,9.418241
2023-12-18T01:59:52.061Z,9.418287
2023-12-18T02:00:52.084Z,9.418184
2023-12-18T02:01:52.017Z,9.418243
2023-12-18T02:02:52.013Z,9.418407
2023-12-18T02:03:52.149Z,9.418341
2023-12-18T02:04:52.038Z,9.418262
2023-12-18T02:05:51.999Z,9.418242
2023-12-18T02:06:51.992Z,9.418203
2023-12-18T02:07:51.976Z,9.418328
2023-12-18T02:08:51.957Z,9.418250
2023-12-18T02:09:52.666Z,9.418327
2023-12-18T02:10:51.964Z,9.418419
2023-12-18T02:11:51.951Z,9.418239
2023-12-18T02:12:51.983Z,9.418136
2023-12-18T02:13:51.941Z,9.418280
2023-12-18T02:14:51.917Z,9.418334
2023-12-18T02:15:51.907Z,9.418241
2023-12-18T02:16:51.904Z,9.418459
2023-12-18T02:17:51.954Z,9.418190
2023-12-18T02:18:52.045Z,9.418316
2023-12-18T02:19:51.940Z,9.418429
2023-12-18T02:20:51.957Z,9.418396
2023-12-18T02:21:51.955Z,9.418304
2023-12-18T02:22:52.012Z,9.418409
2023-12-18T02:23:52.046Z,9.418391
2023-12-18T02:24:51.894Z,9.418415
2023-12-18T02:25:51.911Z,9.418319
2023-12-18T02:26:51.889Z,9.418356
2023-12-18T02:27:51.930Z,9.418418
2023-12-18T02:28:51.952Z,9.418296
2023-12-18T02:29:51.849Z,9.418421
2023-12-18T02:30:51.921Z,9.418351
2023-12-18T02:31:51.834Z,9.418387
2023-12-18T02:32:51.872Z,9.418391
2023-12-18T02:33:52.144Z,9.418442
2023-12-18T02:34:52.040Z,9.418430
2023-12-18T02:35:51.787Z,9.418344
2023-12-18T02:36:51.770Z,9.418343
2023-12-18T02:37:51.773Z,9.418313
2023-12-18T02:38:51.765Z,9.418297
2023-12-18T02:39:51.785Z,9.418162
2023-12-18T02:40:51.739Z,9.418187
2023-12-18T02:41:51.753Z,9.418262
2023-12-18T02:42:51.823Z,9.418318
2023-12-18T02:43:51.719Z,9.418375
2023-12-18T02:44:51.771Z,9.418381
2023-12-18T02:45:51.762Z,9.418399
2023-12-18T02:46:51.688Z,9.418373
2023-12-18T02:47:51.700Z,9.418377
2023-12-18T02:48:51.802Z,9.418319
2023-12-18T02:49:51.761Z,9.418245
2023-12-18T02:50:51.677Z,9.418142
2023-12-18T02:51:51.655Z,9.418298
2023-12-18T02:52:51.657Z,9.418285
2023-12-18T02:53:51.645Z,9.418239
2023-12-18T02:54:51.655Z,9.418287
2023-12-18T02:55:51.662Z,9.418198
2023-12-18T02:56:51.637Z,9.418324
2023-12-18T02:57:51.682Z,9.418340
2023-12-18T02:58:51.651Z,9.418420
2023-12-18T02:59:51.624Z,9.418383
2023-12-18T03:00:51.858Z,9.418365
2023-12-18T03:01:51.621Z,9.418310
2023-12-18T03:02:51.621Z,9.418304
2023-12-18T03:03:51.631Z,9.418303
2023-12-18T03:04:51.611Z,9.418280
2023-12-18T03:05:51.580Z,9.418319
2023-12-18T03:06:51.576Z,9.418330
2023-12-18T03:07:51.559Z,9.418361
2023-12-18T03:08:51.569Z,9.418344
2023-12-18T03:09:51.571Z,9.418310
2023-12-18T03:10:51.550Z,9.418265
2023-12-18T03:11:51.536Z,9.418264
2023-12-18T03:12:51.526Z,9.418276
2023-12-18T03:13:51.514Z,9.418283
2023-12-18T03:14:51.531Z,9.418241
2023-12-18T03:15:51.592Z,9.418162
2023-12-18T03:16:51.500Z,9.418226
2023-12-18T03:17:51.623Z,9.418330
2023-12-18T03:18:51.623Z,9.418324
2023-12-18T03:19:51.584Z,9.418343
2023-12-18T03:20:51.475Z,9.418347
2023-12-18T03:21:51.483Z,9.418328
2023-12-18T03:22:51.463Z,9.418327
2023-12-18T03:23:51.453Z,9.418315
2023-12-18T03:24:51.587Z,9.418258
2023-12-18T03:25:51.440Z,9.418309
2023-12-18T03:26:51.433Z,9.418328
2023-12-18T03:27:51.472Z,9.418296
2023-12-18T03:28:51.424Z,9.418349
2023-12-18T03:29:51.424Z,9.418411
2023-12-18T03:30:51.480Z,9.418283
2023-12-18T03:31:51.401Z,9.418226
2023-12-18T03:32:51.434Z,9.418243
2023-12-18T03:33:51.430Z,9.418202
2023-12-18T03:34:51.408Z,9.418177
2023-12-18T03:35:51.414Z,9.418189
2023-12-18T03:36:51.365Z,9.418238
2023-12-18T03:37:51.357Z,9.418218
2023-12-18T03:38:51.355Z,9.418235
2023-12-18T03:39:51.346Z,9.418245
2023-12-18T03:40:52.114Z,9.418243
2023-12-18T03:41:51.339Z,9.418174
2023-12-18T03:42:51.329Z,9.418188
2023-12-18T03:43:51.321Z,9.418298
2023-12-18T03:44:51.318Z,9.418329
2023-12-18T03:45:51.370Z,9.418312
2023-12-18T03:46:51.329Z,9.418283
2023-12-18T03:47:51.448Z,9.418278
2023-12-18T03:48:52.459Z,9.418218
2023-12-18T03:49:51.312Z,9.418373
2023-12-18T03:50:51.285Z,9.418344
2023-12-18T03:51:51.637Z,9.418272
2023-12-18T03:52:51.270Z,9.418330
2023-12-18T03:53:51.257Z,9.418344
2023-12-18T03:54:51.285Z,9.418321
2023-12-18T03:55:51.230Z,9.418274
2023-12-18T03:56:51.246Z,9.418318
2023-12-18T03:57:51.272Z,9.418330
2023-12-18T03:58:51.248Z,9.418201
2023-12-18T03:59:51.213Z,9.418023
2023-12-18T04:00:51.287Z,9.418168
2023-12-18T04:01:51.213Z,9.418134
2023-12-18T04:02:51.208Z,9.418122
2023-12-18T04:03:51.223Z,9.418167
2023-12-18T04:04:51.271Z,9.418398
2023-12-18T04:05:51.197Z,9.418339
2023-12-18T04:06:51.164Z,9.418214
2023-12-18T04:07:51.165Z,9.418211
2023-12-18T04:08:51.144Z,9.418269
2023-12-18T04:09:51.195Z,9.418399
2023-12-18T04:10:51.130Z,9.418420
2023-12-18T04:11:51.129Z,9.418376
2023-12-18T04:12:51.179Z,9.418364
2023-12-18T04:13:51.122Z,9.418264
2023-12-18T04:14:51.105Z,9.418349
2023-12-18T04:15:51.138Z,9.418336
2023-12-18T04:16:51.102Z,9.418366
2023-12-18T04:17:51.202Z,9.418490
2023-12-18T04:18:51.245Z,9.418705
2023-12-18T04:19:51.113Z,9.418678
2023-12-18T04:20:51.076Z,9.418366
2023-12-18T04:21:51.087Z,9.418340
2023-12-18T04:22:51.050Z,9.418265
2023-12-18T04:23:51.150Z,9.418336
2023-12-18T04:24:51.080Z,9.418325
2023-12-18T04:25:51.045Z,9.418543
2023-12-18T04:26:51.036Z,9.418270
2023-12-18T04:27:51.074Z,9.418392
2023-12-18T04:28:51.028Z,9.418365
2023-12-18T04:29:51.012Z,9.418235
2023-12-18T04:30:51.237Z,9.418098
2023-12-18T04:31:50.988Z,9.418269
2023-12-18T04:32:52.265Z,9.418200
2023-12-18T04:33:51.034Z,9.418097
2023-12-18T04:34:51.034Z,9.418160
2023-12-18T04:35:50.973Z,9.418433
2023-12-18T04:36:51.038Z,9.418314
2023-12-18T04:37:50.986Z,9.418344
2023-12-18T04:38:50.985Z,9.418296
2023-12-18T04:39:50.957Z,9.418150
2023-12-18T04:40:50.935Z,9.418176
2023-12-18T04:41:50.937Z,9.418279
2023-12-18T04:42:50.927Z,9.418163
2023-12-18T04:43:50.921Z,9.418237
2023-12-18T04:44:50.931Z,9.417995
2023-12-18T04:45:50.946Z,9.418324
2023-12-18T04:46:50.893Z,9.418365
2023-12-18T04:47:50.933Z,9.418433
2023-12-18T04:48:51.046Z,9.418566
2023-12-18T04:49:50.948Z,9.418488
2023-12-18T04:50:50.874Z,9.418491
2023-12-18T04:51:51.015Z,9.418364
2023-12-18T04:52:50.856Z,9.418402
2023-12-18T04:53:50.840Z,9.418455
2023-12-18T04:54:50.894Z,9.418601
2023-12-18T04:55:50.850Z,9.418462
2023-12-18T04:56:50.837Z,9.418457
2023-12-18T04:57:50.962Z,9.418438
2023-12-18T04:58:50.808Z,9.418419
2023-12-18T04:59:50.790Z,9.418636
2023-12-18T05:00:50.981Z,9.418674
2023-12-18T05:01:50.828Z,9.418641
2023-12-18T05:02:50.813Z,9.418535
2023-12-18T05:03:50.968Z,9.418428
2023-12-18T05:04:50.903Z,9.418386
2023-12-18T05:05:50.792Z,9.418415
2023-12-18T05:06:50.797Z,9.418188
2023-12-18T05:07:50.760Z,9.418381
2023-12-18T05:08:50.751Z,9.418462
2023-12-18T05:09:50.881Z,9.418327
2023-12-18T05:10:50.748Z,9.418248
2023-12-18T05:11:50.735Z,9.418303
2023-12-18T05:12:50.810Z,9.418412
2023-12-18T05:13:50.722Z,9.418413
2023-12-18T05:14:50.705Z,9.418394
2023-12-18T05:15:50.745Z,9.418315
2023-12-18T05:16:50.697Z,9.418374
2023-12-18T05:17:50.723Z,9.418236
2023-12-18T05:18:50.901Z,9.418375
2023-12-18T05:19:50.717Z,9.418387
2023-12-18T05:20:50.668Z,9.418323
2023-12-18T05:21:50.738Z,9.418288
2023-12-18T05:22:50.673Z,9.418173
2023-12-18T05:23:50.649Z,9.418303
2023-12-18T05:24:50.714Z,9.418264
2023-12-18T05:25:51.642Z,9.418118
2023-12-18T05:26:50.647Z,9.418109
2023-12-18T05:27:50.633Z,9.418105
2023-12-18T05:28:50.619Z,9.418306
2023-12-18T05:29:50.617Z,9.418303
2023-12-18T05:30:50.683Z,9.418205
2023-12-18T05:31:50.671Z,9.418288
2023-12-18T05:32:50.638Z,9.418384
2023-12-18T05:33:51.709Z,9.418328
2023-12-18T05:34:50.767Z,9.418402
2023-12-18T05:35:50.839Z,9.418372
2023-12-18T05:36:50.658Z,9.418338
2023-12-18T05:37:50.561Z,9.418305
2023-12-18T05:38:50.552Z,9.418300
2023-12-18T05:39:50.557Z,9.418287
2023-12-18T05:40:50.570Z,9.418325
2023-12-18T05:41:50.560Z,9.418379
2023-12-18T05:42:50.576Z,9.418429
2023-12-18T05:43:50.524Z,9.418447
2023-12-18T05:44:50.511Z,9.418422
2023-12-18T05:45:50.536Z,9.418425
2023-12-18T05:46:50.513Z,9.418402
2023-12-18T05:47:50.504Z,9.418326
2023-12-18T05:48:50.626Z,9.418365
2023-12-18T05:49:53.880Z,9.418398
2023-12-18T05:50:51.487Z,9.418427
2023-12-18T05:51:50.537Z,9.418435
2023-12-18T05:52:50.463Z,9.418415
2023-12-18T05:53:50.461Z,9.418482
2023-12-18T05:54:50.551Z,9.418516
2023-12-18T05:55:50.437Z,9.418404
2023-12-18T05:56:50.441Z,9.418433
2023-12-18T05:57:50.478Z,9.418338
2023-12-18T05:58:50.427Z,9.418315
2023-12-18T05:59:50.415Z,9.418286
2023-12-18T06:00:50.448Z,9.418345
2023-12-18T06:01:50.460Z,9.418374
2023-12-18T06:02:50.406Z,9.418335
2023-12-18T06:03:50.444Z,9.418345
2023-12-18T06:04:50.443Z,9.418368
2023-12-18T06:05:50.384Z,9.418372
2023-12-18T06:06:50.414Z,9.418300
2023-12-18T06:07:50.363Z,9.418248
2023-12-18T06:08:50.356Z,9.418342
2023-12-18T06:09:50.382Z,9.418344
2023-12-18T06:10:50.347Z,9.418317
2023-12-18T06:11:50.339Z,9.418339
2023-12-18T06:12:50.356Z,9.418366
2023-12-18T06:13:50.324Z,9.418374
2023-12-18T06:14:50.303Z,9.418412
2023-12-18T06:15:50.386Z,9.418424
2023-12-18T06:16:50.316Z,9.418408
2023-12-18T06:17:50.425Z,9.418402
2023-12-18T06:18:51.410Z,9.418399
2023-12-18T06:19:50.376Z,9.418415
2023-12-18T06:20:50.266Z,9.418416
2023-12-18T06:21:50.385Z,9.418369
2023-12-18T06:22:50.276Z,9.418393
2023-12-18T06:23:50.270Z,9.418329
2023-12-18T06:24:50.299Z,9.418304
2023-12-18T06:25:50.277Z,9.418313
2023-12-18T06:26:50.283Z,9.418301
2023-12-18T06:27:50.368Z,9.418349
2023-12-18T06:28:50.235Z,9.418352
2023-12-18T06:29:50.215Z,9.418378
2023-12-18T06:30:50.270Z,9.418342
2023-12-18T06:31:50.248Z,9.418332
2023-12-18T06:32:50.512Z,9.418384
2023-12-18T06:33:50.412Z,9.418283
2023-12-18T06:34:50.296Z,9.418331
2023-12-18T06:35:50.181Z,9.418302
2023-12-18T06:36:50.161Z,9.418340
2023-12-18T06:37:50.165Z,9.418275
2023-12-18T06:38:50.170Z,9.418308
2023-12-18T06:39:50.153Z,9.418224
2023-12-18T06:40:50.142Z,9.418254
2023-12-18T06:41:50.135Z,9.418333
2023-12-18T06:42:50.145Z,9.418330
2023-12-18T06:43:50.115Z,9.418403
2023-12-18T06:44:50.129Z,9.418494
2023-12-18T06:45:50.205Z,9.418487
2023-12-18T06:46:50.095Z,9.418377
2023-12-18T06:47:50.146Z,9.418057
2023-12-18T06:48:50.187Z,9.417837
2023-12-18T06:49:50.104Z,9.417923
2023-12-18T06:50:50.074Z,9.418116
2023-12-18T06:51:50.098Z,9.418361
2023-12-18T06:52:50.055Z,9.418484
2023-12-18T06:53:50.053Z,9.418421
2023-12-18T06:54:50.101Z,9.418335
2023-12-18T06:55:51.036Z,9.418373
2023-12-18T06:56:50.066Z,9.418221
2023-12-18T06:57:50.100Z,9.418147
2023-12-18T06:58:50.034Z,9.418066
2023-12-18T06:59:50.030Z,9.418184
2023-12-18T07:00:50.110Z,9.418302
2023-12-18T07:01:50.041Z,9.418545
2023-12-18T07:02:50.005Z,9.418459
2023-12-18T07:03:50.081Z,9.418340
2023-12-18T07:04:50.040Z,9.418591
2023-12-18T07:05:50.022Z,9.418505
2023-12-18T07:06:49.994Z,9.418318
2023-12-18T07:07:49.962Z,9.418390
2023-12-18T07:08:49.972Z,9.418115
2023-12-18T07:09:50.000Z,9.417901
2023-12-18T07:10:49.947Z,9.418078
2023-12-18T07:11:49.943Z,9.418099
2023-12-18T07:12:49.955Z,9.418168
2023-12-18T07:13:50.000Z,9.418240
2023-12-18T07:14:49.908Z,9.418282
2023-12-18T07:15:49.939Z,9.418320
2023-12-18T07:16:49.912Z,9.418308
2023-12-18T07:17:49.945Z,9.418365
2023-12-18T07:18:50.012Z,9.418209
2023-12-18T07:19:49.877Z,9.418350
2023-12-18T07:20:49.938Z,9.418262
2023-12-18T07:21:49.920Z,9.418137
2023-12-18T07:22:49.847Z,9.418279
2023-12-18T07:23:49.842Z,9.418176
2023-12-18T07:24:49.928Z,9.418472
2023-12-18T07:25:49.830Z,9.418062
2023-12-18T07:26:49.815Z,9.418158
2023-12-18T07:27:49.883Z,9.418327
2023-12-18T07:28:49.802Z,9.418363
2023-12-18T07:29:49.825Z,9.418805
2023-12-18T07:30:49.861Z,9.418907
2023-12-18T07:31:49.818Z,9.419055
2023-12-18T07:32:49.864Z,9.418740
2023-12-18T07:33:49.852Z,9.418562
2023-12-18T07:34:49.866Z,9.417981
2023-12-18T07:35:49.776Z,9.418460
2023-12-18T07:36:49.905Z,9.418953
2023-12-18T07:37:49.773Z,9.418746
2023-12-18T07:38:49.740Z,9.418748
2023-12-18T07:39:49.807Z,9.418173
2023-12-18T07:40:49.763Z,9.418174
2023-12-18T07:41:49.735Z,9.418856
2023-12-18T07:42:49.785Z,9.418610
2023-12-18T07:43:49.768Z,9.418744
2023-12-18T07:44:49.707Z,9.418689
2023-12-18T07:45:49.828Z,9.418343
2023-12-18T07:46:49.716Z,9.418153
2023-12-18T07:47:49.810Z,9.418262
2023-12-18T07:48:50.047Z,9.418362
2023-12-18T07:49:51.055Z,9.418447
2023-12-18T07:50:50.676Z,9.417987
2023-12-18T07:51:49.734Z,9.418067
2023-12-18T07:52:49.642Z,9.418274
2023-12-18T07:53:49.827Z,9.418310
2023-12-18T07:54:49.675Z,9.418272
2023-12-18T07:55:51.169Z,9.418177
2023-12-18T07:56:49.623Z,9.418306
2023-12-18T07:57:49.663Z,9.418422
2023-12-18T07:58:49.625Z,9.418444
2023-12-18T07:59:49.611Z,9.418385
2023-12-18T08:00:49.665Z,9.418354
2023-12-18T08:01:49.625Z,9.418332
2023-12-18T08:02:49.697Z,9.418366
2023-12-18T08:03:49.705Z,9.418379
2023-12-18T08:04:49.589Z,9.418338
2023-12-18T08:05:49.573Z,9.418380
2023-12-18T08:06:49.594Z,9.418367
2023-12-18T08:07:49.557Z,9.418371
2023-12-18T08:08:49.614Z,9.418406
2023-12-18T08:09:49.625Z,9.418333
2023-12-18T08:10:49.539Z,9.418385
2023-12-18T08:11:49.570Z,9.418326
2023-12-18T08:12:49.591Z,9.418390
2023-12-18T08:13:49.498Z,9.418329
2023-12-18T08:14:49.518Z,9.418378
2023-12-18T08:15:49.521Z,9.418257
2023-12-18T08:16:50.520Z,9.418292
2023-12-18T08:17:49.556Z,9.418296
2023-12-18T08:18:49.629Z,9.418504
2023-12-18T08:19:49.553Z,9.418371
2023-12-18T08:20:49.457Z,9.418313
2023-12-18T08:21:49.707Z,9.418270
2023-12-18T08:22:49.449Z,9.418432
2023-12-18T08:23:49.479Z,9.418589
2023-12-18T08:24:49.481Z,9.418608
2023-12-18T08:25:49.446Z,9.418621
2023-12-18T08:26:49.467Z,9.418610
2023-12-18T08:27:49.550Z,9.418446
2023-12-18T08:28:49.445Z,9.418322
2023-12-18T08:29:49.406Z,9.418321
2023-12-18T08:30:49.513Z,9.418262
2023-12-18T08:31:49.403Z,9.418298
2023-12-18T08:32:49.389Z,9.418338
2023-12-18T08:33:49.425Z,9.418375
2023-12-18T08:34:49.517Z,9.418330
2023-12-18T08:35:49.366Z,9.418348
2023-12-18T08:36:49.421Z,9.418284
2023-12-18T08:37:49.351Z,9.418303
2023-12-18T08:38:50.030Z,9.418323
2023-12-18T08:39:49.459Z,9.418340
2023-12-18T08:40:50.425Z,9.418339
2023-12-18T08:41:49.321Z,9.418341
2023-12-18T08:42:49.337Z,9.418291
2023-12-18T08:43:58.243Z,9.418361
2023-12-18T08:44:51.323Z,9.418345
2023-12-18T08:45:49.436Z,9.418457
2023-12-18T08:46:49.289Z,9.418415
2023-12-18T08:47:49.468Z,9.418373
2023-12-18T08:48:49.429Z,9.418341
2023-12-18T08:49:49.273Z,9.418376
2023-12-18T08:50:49.876Z,9.418340
2023-12-18T08:51:49.293Z,9.418287
2023-12-18T08:52:49.254Z,9.418354
2023-12-18T08:53:49.963Z,9.418334
2023-12-18T08:54:49.312Z,9.418264
2023-12-18T08:55:49.292Z,9.418380
2023-12-18T08:56:49.230Z,9.418369
2023-12-18T08:57:49.235Z,9.418440
2023-12-18T08:58:49.227Z,9.418369
2023-12-18T08:59:49.190Z,9.418295
2023-12-18T09:00:49.274Z,9.418339
2023-12-18T09:01:49.179Z,9.418410
2023-12-18T09:02:49.249Z,9.418424
2023-12-18T09:03:49.354Z,9.418351
2023-12-18T09:04:49.277Z,9.418367
2023-12-18T09:05:49.202Z,9.418373
2023-12-18T09:06:49.152Z,9.418367
2023-12-18T09:07:49.171Z,9.418366
2023-12-18T09:08:49.172Z,9.418166
2023-12-18T09:09:49.231Z,9.418339
2023-12-18T09:10:49.122Z,9.418244
2023-12-18T09:11:49.122Z,9.418558
2023-12-18T09:12:49.253Z,9.419127
2023-12-18T09:13:49.114Z,9.418810
2023-12-18T09:14:49.192Z,9.418742
2023-12-18T09:15:49.204Z,9.418876
2023-12-18T09:16:49.086Z,9.418679
2023-12-18T09:17:49.096Z,9.418483
2023-12-18T09:18:50.047Z,9.418523
2023-12-18T09:19:49.150Z,9.418508
2023-12-18T09:20:49.071Z,9.418493
2023-12-18T09:21:49.144Z,9.418671
2023-12-18T09:22:49.047Z,9.418511
2023-12-18T09:23:49.039Z,9.418595
2023-12-18T09:24:49.172Z,9.418468
2023-12-18T09:25:49.040Z,9.418382
2023-12-18T09:26:49.026Z,9.418355
2023-12-18T09:27:49.064Z,9.418321
2023-12-18T09:28:49.134Z,9.418212
2023-12-18T09:29:49.047Z,9.418248
2023-12-18T09:30:49.056Z,9.418364
2023-12-18T09:31:49.153Z,9.418418
2023-12-18T09:32:49.270Z,9.418242
2023-12-18T09:33:49.257Z,9.418339
2023-12-18T09:34:49.265Z,9.418296
2023-12-18T09:35:48.965Z,9.418268
2023-12-18T09:36:49.095Z,9.418173
2023-12-18T09:37:48.932Z,9.418105
2023-12-18T09:38:48.966Z,9.418125
2023-12-18T09:39:49.026Z,9.418153
2023-12-18T09:40:48.939Z,9.418106
2023-12-18T09:41:48.915Z,9.418161
2023-12-18T09:42:48.939Z,9.418249
2023-12-18T09:43:48.917Z,9.418288
2023-12-18T09:44:48.902Z,9.418174
2023-12-18T09:45:48.932Z,9.418184
2023-12-18T09:46:48.880Z,9.418221
2023-12-18T09:47:48.963Z,9.418202
2023-12-18T09:48:48.945Z,9.418242
2023-12-18T09:49:48.953Z,9.418264
2023-12-18T09:50:48.861Z,9.418311
2023-12-18T09:51:48.910Z,9.418307
2023-12-18T09:52:48.853Z,9.418370
2023-12-18T09:53:48.861Z,9.418249
2023-12-18T09:54:48.842Z,9.418254
2023-12-18T09:55:48.825Z,9.418254
2023-12-18T09:56:48.800Z,9.418266
2023-12-18T09:57:48.824Z,9.418294
2023-12-18T09:58:48.800Z,9.418269
2023-12-18T09:59:48.803Z,9.418227
2023-12-18T10:00:49.101Z,9.418280
2023-12-18T10:01:48.840Z,9.418316
2023-12-18T10:02:48.778Z,9.418234
2023-12-18T10:03:48.819Z,9.418299
2023-12-18T10:04:48.781Z,9.418269
2023-12-18T10:05:49.955Z,9.418200
2023-12-18T10:06:48.814Z,9.418230
2023-12-18T10:07:48.889Z,9.418208
2023-12-18T10:08:48.723Z,9.418209
2023-12-18T10:09:48.801Z,9.418235
2023-12-18T10:10:48.738Z,9.418285
2023-12-18T10:11:50.641Z,9.418305
2023-12-18T10:12:48.912Z,9.418347
2023-12-18T10:13:48.694Z,9.418347
2023-12-18T10:14:48.693Z,9.418344
2023-12-18T10:15:48.714Z,9.418331
2023-12-18T10:16:48.671Z,9.418303
2023-12-18T10:17:48.686Z,9.418414
2023-12-18T10:18:48.786Z,9.418524
2023-12-18T10:19:48.696Z,9.418419
2023-12-18T10:20:48.638Z,9.418194
2023-12-18T10:21:48.681Z,9.418395
2023-12-18T10:22:49.373Z,9.418379
2023-12-18T10:23:48.621Z,9.418259
2023-12-18T10:24:48.692Z,9.418357
2023-12-18T10:25:48.639Z,9.418290
2023-12-18T10:26:48.620Z,9.418251
2023-12-18T10:27:48.793Z,9.418344
2023-12-18T10:28:48.590Z,9.418314
2023-12-18T10:29:48.579Z,9.418363
2023-12-18T10:30:48.660Z,9.418334
2023-12-18T10:31:48.741Z,9.418313
2023-12-18T10:32:48.658Z,9.418285
2023-12-18T10:33:48.750Z,9.418308
2023-12-18T10:34:48.610Z,9.418344
2023-12-18T10:35:48.570Z,9.418381
2023-12-18T10:36:48.655Z,9.418282
2023-12-18T10:37:48.564Z,9.418284
2023-12-18T10:38:48.534Z,9.418294
2023-12-18T10:39:48.584Z,9.418322
2023-12-18T10:40:48.531Z,9.418233
2023-12-18T10:41:48.500Z,9.418244
2023-12-18T10:42:48.527Z,9.418190
2023-12-18T10:43:48.481Z,9.418277
2023-12-18T10:44:48.481Z,9.418270
2023-12-18T10:45:48.550Z,9.418230
2023-12-18T10:46:48.469Z,9.418242
2023-12-18T10:47:48.498Z,9.418261
2023-12-18T10:48:48.480Z,9.418334
2023-12-18T10:49:48.554Z,9.418262
2023-12-18T10:50:48.468Z,9.418283
2023-12-18T10:51:48.468Z,9.418352
2023-12-18T10:52:48.441Z,9.418216
2023-12-18T10:53:48.422Z,9.418289
2023-12-18T10:54:48.489Z,9.418259
2023-12-18T10:55:48.426Z,9.418265
2023-12-18T10:56:48.399Z,9.418621
2023-12-18T10:57:48.385Z,9.418310
2023-12-18T10:58:48.400Z,9.418252
2023-12-18T10:59:48.392Z,9.418236
2023-12-18T11:00:48.458Z,9.418308
2023-12-18T11:01:48.350Z,9.418357
2023-12-18T11:02:48.370Z,9.418372
2023-12-18T11:03:48.539Z,9.418361
2023-12-18T11:04:48.337Z,9.418324
2023-12-18T11:05:48.365Z,9.418284
2023-12-18T11:06:48.338Z,9.418286
2023-12-18T11:07:48.314Z,9.418320
2023-12-18T11:08:48.340Z,9.418316
2023-12-18T11:09:48.362Z,9.418477
2023-12-18T11:10:48.436Z,9.418364
2023-12-18T11:11:48.278Z,9.418332
2023-12-18T11:12:48.414Z,9.418458
2023-12-18T11:13:48.294Z,9.418385
2023-12-18T11:14:48.384Z,9.418303
2023-12-18T11:15:48.307Z,9.418240
2023-12-18T11:16:48.258Z,9.418328
2023-12-18T11:17:48.382Z,9.418386
2023-12-18T11:18:48.494Z,9.418416
2023-12-18T11:19:48.260Z,9.418403
2023-12-18T11:20:48.236Z,9.418361
2023-12-18T11:21:48.235Z,9.418365
2023-12-18T11:22:48.212Z,9.418171
2023-12-18T11:23:50.537Z,9.418360
2023-12-18T11:24:49.301Z,9.418325
2023-12-18T11:25:49.252Z,9.418146
2023-12-18T11:26:48.190Z,9.418247
2023-12-18T11:27:48.282Z,9.418258
2023-12-18T11:28:49.203Z,9.418291
2023-12-18T11:29:48.167Z,9.418358
2023-12-18T11:30:48.407Z,9.418312
2023-12-18T11:31:48.245Z,9.418304
2023-12-18T11:32:48.224Z,9.418320
2023-12-18T11:33:49.204Z,9.418285
2023-12-18T11:34:49.222Z,9.418305
2023-12-18T11:35:49.150Z,9.418289
2023-12-18T11:36:48.171Z,9.418281
2023-12-18T11:37:48.137Z,9.418284
2023-12-18T11:38:48.106Z,9.418272
2023-12-18T11:39:48.129Z,9.418243
2023-12-18T11:40:48.094Z,9.418276
2023-12-18T11:41:48.088Z,9.418327
2023-12-18T11:42:48.154Z,9.418324
2023-12-18T11:43:48.084Z,9.418286
2023-12-18T11:44:48.090Z,9.418282